Eden, Illinois
Current Conditions -  °F | °C
As of 9:55 PM on Sunday 21 Dec 2014 (Local Time) from KSAR Reporting Station
Overcast Overcast  
Wind Chill: 33°   Ceiling: 6000
Heat Index: 39°   Visibility: 10mi
Dew Point: 31°   Wind: 9mph
Humidity: 73%   Direction: 120°ESE
Pressure: 29.99"   Gusts: NA
Location:  38.1133°N, 89.7153°W
Report Text: KSAR 220355Z AUTO 12008KT 10SM OVC060 04/00 A2999 RMK AO2 T00401004 400610006
Loading
Personal Weather Stations






























Interactive Weather Map New forecast layout! Learn more

10-Day Weather Forecast

Advertisements
Track Severe Weather on mobile